Time;durP1;ratioP1;P1;durP2;ratioP2;P2;SDS_P1;SDS_P2;PMS_P1;PMS_P2;Temp;Humidity;BMP_temperature;BMP_pressure;BME280_temperature;BME280_humidity;BME280_pressure;Samples;Min_cycle;Max_cycle;Signal;HPM_P1;HPM_P2
2023/09/11 00:01:02;;;;;;;9.10;4.80;;;;;;;14.43;71.18;99834.83;81836;1299;3011307;-72
2023/09/11 00:03:30;;;;;;;9.20;5.00;;;;;;;14.38;71.34;99829.02;80549;1300;3027623;-73
2023/09/11 00:06:04;;;;;;;10.60;5.80;;;;;;;14.25;72.17;99833.13;81878;1299;3011325;-73
2023/09/11 00:08:33;;;;;;;7.70;5.40;;;;;;;14.17;72.39;99831.70;80611;1299;3068573;-74
2023/09/11 00:10:59;;;;;;;12.50;5.60;;;;;;;14.14;72.71;99832.64;81859;1299;3012656;-73
2023/09/11 00:13:26;;;;;;;9.90;4.50;;;;;;;14.12;72.49;99825.52;81851;1299;3011294;-73
2023/09/11 00:15:54;;;;;;;11.20;4.80;;;;;;;14.61;71.73;99824.71;80593;1300;3026315;-72
2023/09/11 00:18:21;;;;;;;11.80;5.00;;;;;;;15.22;69.65;99827.91;81885;1303;3012739;-73
2023/09/11 00:20:47;;;;;;;10.80;5.30;;;;;;;15.39;68.98;99827.75;81874;1298;3011613;-73
2023/09/11 00:23:15;;;;;;;9.20;5.90;;;;;;;15.24;68.83;99829.76;80623;1299;3026546;-73
2023/09/11 00:25:42;;;;;;;9.90;5.90;;;;;;;15.04;69.41;99827.11;81864;1299;3017977;-72
2023/09/11 00:28:09;;;;;;;11.40;6.20;;;;;;;14.91;69.56;99824.52;81844;1299;3011296;-73
2023/09/11 00:30:37;;;;;;;13.30;6.00;;;;;;;14.62;70.74;99826.96;80603;1298;3027084;-73
2023/09/11 00:33:04;;;;;;;11.30;5.90;;;;;;;14.56;70.83;99823.66;81883;1302;3018266;-71
2023/09/11 00:35:31;;;;;;;13.00;6.80;;;;;;;14.40;71.51;99823.02;81723;1300;3011180;-74
2023/09/11 00:37:59;;;;;;;12.30;6.20;;;;;;;14.25;71.92;99817.36;80484;1299;3026357;-71
2023/09/11 00:40:25;;;;;;;13.70;6.30;;;;;;;14.11;72.87;99814.87;81875;1299;3012562;-74
2023/09/11 00:42:52;;;;;;;9.90;5.90;;;;;;;14.02;73.26;99814.42;81730;1299;3011127;-74
2023/09/11 00:45:20;;;;;;;16.00;8.30;;;;;;;13.94;73.21;99814.23;80623;1299;3026621;-73
2023/09/11 00:47:47;;;;;;;17.10;9.10;;;;;;;13.88;73.88;99819.98;81863;1299;3018866;-74
2023/09/11 00:50:14;;;;;;;14.10;6.10;;;;;;;13.80;74.45;99820.17;81685;1302;3011209;-74
2023/09/11 00:52:41;;;;;;;11.80;6.30;;;;;;;14.30;73.12;99810.18;80444;1300;3025997;-72
2023/09/11 00:55:09;;;;;;;17.50;6.10;;;;;;;14.81;70.87;99806.02;81862;1300;3018132;-73
2023/09/11 00:57:36;;;;;;;11.30;6.20;;;;;;;14.95;70.21;99804.36;81841;1298;3011253;-74
2023/09/11 01:00:06;;;;;;;12.90;7.30;;;;;;;14.77;70.49;99804.73;80468;1299;3025912;-71
2023/09/11 01:02:33;;;;;;;11.10;6.60;;;;;;;14.67;70.70;99804.02;81718;1301;3011051;-72
2023/09/11 01:05:07;;;;;;;12.90;6.40;;;;;;;14.55;71.27;99807.39;81149;1302;3011339;-74
2023/09/11 01:07:34;;;;;;;13.30;6.80;;;;;;;14.33;71.78;99804.81;81742;1302;3011399;-73
2023/09/11 01:10:06;;;;;;;13.00;7.30;;;;;;;14.22;72.32;99801.20;80609;1300;3068229;-72
2023/09/11 01:12:37;;;;;;;10.50;6.70;;;;;;;14.06;72.72;99799.48;81754;1299;3011364;-73
2023/09/11 01:15:06;;;;;;;17.00;8.10;;;;;;;13.94;73.17;99804.73;80630;1298;3056697;-72
2023/09/11 01:17:49;;;;;;;14.00;7.60;;;;;;;13.87;73.29;99800.27;81860;1299;3011361;-74
2023/09/11 01:20:42;;;;;;;13.60;7.50;;;;;;;13.70;74.36;99799.69;80500;1299;3049618;-73
2023/09/11 01:23:31;;;;;;;12.40;6.50;;;;;;;13.63;75.25;99800.36;80613;1299;3052948;-74
2023/09/11 01:26:05;;;;;;;12.80;6.60;;;;;;;14.47;72.82;99794.02;80637;1298;3052989;-73
2023/09/11 01:29:02;;;;;;;11.80;6.10;;;;;;;14.94;70.64;99793.11;81876;1299;3011181;-74
2023/09/11 01:31:31;;;;;;;11.70;5.90;;;;;;;15.04;70.01;99794.65;80483;1299;3051586;-71
2023/09/11 01:34:02;;;;;;;13.20;6.90;;;;;;;14.80;70.15;99794.10;81873;1300;3012780;-73
2023/09/11 01:36:30;;;;;;;17.00;7.40;;;;;;;14.49;71.08;99799.69;80571;1299;3052082;-73
2023/09/11 01:38:57;;;;;;;13.70;7.40;;;;;;;14.30;71.62;99799.10;81864;1299;3013023;-72
2023/09/11 01:41:31;;;;;;;14.80;7.80;;;;;;;14.10;72.58;99798.02;81893;1298;3011422;-73
2023/09/11 01:44:04;;;;;;;18.10;8.10;;;;;;;13.95;73.32;99801.86;80429;1300;3069281;-73
2023/09/11 01:46:31;;;;;;;11.80;7.60;;;;;;;13.80;73.83;99802.76;81732;1299;3011409;-72
2023/09/11 01:48:59;;;;;;;10.90;7.20;;;;;;;13.74;73.87;99801.93;80463;1299;3055781;-74
2023/09/11 01:51:25;;;;;;;11.80;7.30;;;;;;;13.57;75.27;99802.54;81701;1299;3012800;-74
2023/09/11 01:53:52;;;;;;;9.20;5.70;;;;;;;13.50;75.56;99803.34;81679;1300;3011548;-73
2023/09/11 01:56:20;;;;;;;13.00;6.50;;;;;;;13.92;74.87;99796.94;80504;1300;3027491;-73
2023/09/11 01:58:47;;;;;;;16.80;6.90;;;;;;;14.44;72.49;99797.55;81724;1301;3018289;-73
2023/09/11 02:01:14;;;;;;;12.70;7.00;;;;;;;14.49;72.11;99794.91;81759;1299;3011594;-74
2023/09/11 02:03:44;;;;;;;12.50;6.80;;;;;;;14.35;72.23;99792.89;80588;1299;3026488;-73
2023/09/11 02:06:10;;;;;;;11.80;7.40;;;;;;;14.19;72.97;99788.06;81726;1299;3011235;-73
2023/09/11 02:08:37;;;;;;;10.30;6.70;;;;;;;13.96;73.63;99787.70;81855;1300;3011341;-73
2023/09/11 02:11:07;;;;;;;18.60;9.30;;;;;;;13.72;74.97;99795.00;80583;1298;3052637;-71
2023/09/11 02:13:35;;;;;;;21.00;9.60;;;;;;;13.63;75.31;99791.02;81710;1301;3012817;-73
2023/09/11 02:16:04;;;;;;;12.30;6.60;;;;;;;13.58;75.55;99788.73;81239;1298;3011300;-72
2023/09/11 02:18:30;;;;;;;12.90;6.70;;;;;;;13.47;76.07;99787.55;81840;1299;3013002;-72
2023/09/11 02:20:57;;;;;;;11.10;6.10;;;;;;;13.43;76.79;99786.23;81747;1299;3011207;-72
2023/09/11 02:23:25;;;;;;;10.20;6.00;;;;;;;13.92;75.39;99781.66;80509;1299;3025827;-72
2023/09/11 02:25:53;;;;;;;11.90;7.10;;;;;;;14.40;73.22;99785.86;81837;1300;3012426;-73
2023/09/11 02:28:20;;;;;;;10.30;5.80;;;;;;;14.43;72.85;99785.85;81844;1299;3011183;-71
2023/09/11 02:30:48;;;;;;;11.00;6.50;;;;;;;14.30;73.16;99782.21;80603;1298;3069644;-72
2023/09/11 02:33:15;;;;;;;15.10;6.70;;;;;;;14.13;73.92;99780.35;81849;1299;3012580;-71
2023/09/11 02:35:42;;;;;;;9.50;6.50;;;;;;;13.96;74.47;99782.57;81861;1299;3011579;-72
2023/09/11 02:38:10;;;;;;;9.70;6.10;;;;;;;13.79;75.11;99781.83;80442;1301;3052821;-71
2023/09/11 02:40:37;;;;;;;15.00;7.00;;;;;;;13.63;76.09;99784.35;81732;1302;3011300;-73
2023/09/11 02:43:03;;;;;;;12.90;6.80;;;;;;;13.52;76.69;99784.55;81864;1299;3011431;-73
2023/09/11 02:45:31;;;;;;;11.70;5.00;;;;;;;13.47;76.81;99785.73;80473;1299;3026708;-74
2023/09/11 02:47:58;;;;;;;10.50;5.40;;;;;;;13.96;75.94;99777.77;81859;1298;3012561;-74
2023/09/11 02:50:25;;;;;;;9.80;5.80;;;;;;;14.50;73.56;99780.38;81879;1299;3011077;-74
2023/09/11 02:52:54;;;;;;;8.90;5.70;;;;;;;14.56;72.76;99779.13;80563;1303;3053894;-74
2023/09/11 02:55:20;;;;;;;14.30;5.50;;;;;;;14.39;72.89;99783.66;81848;1299;3012524;-74
2023/09/11 02:57:47;;;;;;;13.70;6.90;;;;;;;14.15;73.78;99782.15;81857;1300;3011620;-74
2023/09/11 03:00:15;;;;;;;12.30;6.50;;;;;;;13.95;74.74;99780.19;80608;1300;3026446;-74
2023/09/11 03:02:42;;;;;;;12.10;6.60;;;;;;;13.84;75.59;99782.38;81860;1298;3013186;-75
2023/09/11 03:05:09;;;;;;;22.90;7.00;;;;;;;13.65;76.70;99793.91;81827;1299;3011400;-74
2023/09/11 03:07:37;;;;;;;11.40;6.90;;;;;;;13.49;77.22;99791.12;80441;1301;3026208;-73
2023/09/11 03:10:03;;;;;;;7.40;5.10;;;;;;;13.43;77.46;99790.46;81859;1299;3012957;-74
2023/09/11 03:12:31;;;;;;;12.20;6.70;;;;;;;13.84;76.31;99790.11;81713;1300;3011281;-74
2023/09/11 03:15:03;;;;;;;11.90;6.00;;;;;;;14.18;75.24;99787.77;80595;1300;3026353;-74
2023/09/11 03:17:31;;;;;;;10.00;6.00;;;;;;;14.16;74.64;99794.77;81746;1299;3011365;-73
2023/09/11 03:19:59;;;;;;;10.40;6.60;;;;;;;13.92;75.51;99800.00;80459;1299;3056128;-73
2023/09/11 03:22:25;;;;;;;13.20;6.80;;;;;;;13.70;76.60;99804.80;81700;1305;3019142;-73
2023/09/11 03:24:52;;;;;;;12.90;7.50;;;;;;;13.54;77.46;99804.69;81718;1299;3011022;-71
2023/09/11 03:27:20;;;;;;;13.20;6.80;;;;;;;13.37;78.00;99805.24;80567;1300;3026277;-74
2023/09/11 03:29:51;;;;;;;16.00;7.90;;;;;;;13.24;78.62;99804.50;81876;1299;3018589;-74
2023/09/11 03:32:20;;;;;;;10.20;5.70;;;;;;;13.21;78.86;99807.37;81164;1301;3011275;-73
2023/09/11 03:34:53;;;;;;;11.30;6.40;;;;;;;13.64;77.94;99804.55;81729;1299;3013246;-74
2023/09/11 03:37:22;;;;;;;11.90;7.20;;;;;;;13.93;76.52;99800.23;80458;1300;3049257;-73
2023/09/11 03:39:49;;;;;;;14.60;7.60;;;;;;;14.04;75.69;99799.64;81691;1300;3011631;-72
2023/09/11 03:42:15;;;;;;;14.40;8.10;;;;;;;13.89;76.64;99800.16;81679;1300;3011403;-73
2023/09/11 03:44:43;;;;;;;13.10;8.40;;;;;;;13.73;77.38;99804.27;80420;1303;3053089;-73
2023/09/11 03:47:11;;;;;;;17.90;9.50;;;;;;;13.63;77.54;99802.45;81745;1300;3017990;-72
2023/09/11 03:49:38;;;;;;;17.50;8.60;;;;;;;13.43;78.76;99800.25;81716;1299;3011387;-73
2023/09/11 03:52:06;;;;;;;17.90;9.90;;;;;;;13.21;79.32;99798.74;80407;1300;3051546;-73
2023/09/11 03:54:33;;;;;;;15.90;8.10;;;;;;;12.96;81.32;99801.80;81715;1300;3013098;-72
2023/09/11 03:57:00;;;;;;;16.00;8.60;;;;;;;13.37;80.47;99803.48;81709;1299;3011203;-72
2023/09/11 03:59:28;;;;;;;20.30;8.70;;;;;;;13.73;78.64;99798.10;80461;1304;3027010;-73
2023/09/11 04:01:55;;;;;;;12.90;8.20;;;;;;;13.72;78.20;99800.27;81698;1305;3012921;-73
2023/09/11 04:04:22;;;;;;;18.40;9.90;;;;;;;13.58;78.66;99797.34;81714;1299;3011555;-73
2023/09/11 04:06:50;;;;;;;17.20;10.50;;;;;;;13.45;79.26;99792.45;80493;1299;3051018;-72
2023/09/11 04:09:17;;;;;;;18.90;10.50;;;;;;;13.23;80.08;99800.00;81802;1297;3011351;-76
2023/09/11 04:11:45;;;;;;;16.40;11.00;;;;;;;13.13;80.71;99796.77;81705;1299;3011067;-72
2023/09/11 04:14:13;;;;;;;12.50;7.60;;;;;;;13.07;80.98;99795.29;80594;1300;3051524;-72
2023/09/11 04:16:40;;;;;;;16.10;9.10;;;;;;;13.65;79.25;99794.38;81714;1300;3013058;-72
2023/09/11 04:19:07;;;;;;;16.00;8.80;;;;;;;14.24;76.53;99790.02;81825;1299;3011228;-73
2023/09/11 04:21:35;;;;;;;16.60;8.70;;;;;;;14.24;75.55;99792.61;80583;1299;3026578;-73
2023/09/11 04:24:02;;;;;;;23.50;10.10;;;;;;;14.09;75.67;99794.58;81824;1300;3013000;-72
2023/09/11 04:26:29;;;;;;;21.50;10.90;;;;;;;13.77;76.81;99803.64;81846;1299;3011273;-73
2023/09/11 04:29:00;;;;;;;16.80;10.40;;;;;;;13.63;77.94;99801.39;80468;1300;3053562;-74
2023/09/11 04:31:27;;;;;;;20.40;10.10;;;;;;;13.46;78.27;99799.89;81703;1303;3011079;-73
2023/09/11 04:33:57;;;;;;;25.10;11.00;;;;;;;13.34;78.99;99804.91;81206;1300;3011224;-72
2023/09/11 04:36:23;;;;;;;13.50;8.20;;;;;;;13.33;79.52;99800.40;81714;1299;3012546;-73
2023/09/11 04:38:50;;;;;;;14.60;9.30;;;;;;;13.80;78.50;99797.80;81703;1299;3011293;-72
2023/09/11 04:41:18;;;;;;;15.80;9.10;;;;;;;14.20;76.38;99795.02;80606;1299;3026582;-72
2023/09/11 04:43:46;;;;;;;24.20;9.40;;;;;;;14.34;75.46;99790.56;81721;1304;3011107;-74
2023/09/11 04:46:13;;;;;;;20.60;9.50;;;;;;;14.34;75.47;99790.35;81716;1299;3011164;-72
2023/09/11 04:48:41;;;;;;;17.90;9.80;;;;;;;14.31;75.57;99790.58;80508;1300;3051684;-73
2023/09/11 04:51:08;;;;;;;16.90;9.60;;;;;;;14.25;75.37;99786.91;81735;1298;3012694;-73
2023/09/11 04:53:35;;;;;;;18.00;9.60;;;;;;;14.15;75.67;99790.25;81718;1298;3011339;-71
2023/09/11 04:56:03;;;;;;;19.10;9.90;;;;;;;14.04;76.08;99786.96;80451;1299;3050138;-73
2023/09/11 04:58:30;;;;;;;21.70;10.00;;;;;;;13.92;76.74;99791.16;81791;1300;3012731;-72
2023/09/11 05:00:57;;;;;;;14.20;7.20;;;;;;;13.85;77.80;99791.84;81749;1300;3011810;-73
2023/09/11 05:03:28;;;;;;;20.30;8.40;;;;;;;14.45;76.38;99786.59;80503;1299;3050911;-73
2023/09/11 05:05:55;;;;;;;18.00;8.10;;;;;;;15.04;73.62;99784.04;81815;1300;3011287;-73
2023/09/11 05:08:24;;;;;;;15.10;8.10;;;;;;;15.13;72.91;99783.58;81164;1300;3011907;-73
2023/09/11 05:10:51;;;;;;;15.60;9.60;;;;;;;15.06;73.22;99780.73;81701;1299;3012651;-73
2023/09/11 05:13:18;;;;;;;16.80;9.10;;;;;;;15.01;73.31;99784.14;81695;1302;3011380;-72
2023/09/11 05:15:48;;;;;;;19.80;10.10;;;;;;;14.85;73.40;99784.04;80439;1304;3026185;-72
2023/09/11 05:18:15;;;;;;;18.90;9.60;;;;;;;14.77;73.70;99781.62;81728;1301;3011496;-71
2023/09/11 05:20:46;;;;;;;20.50;9.80;;;;;;;14.74;74.17;99783.29;81215;1299;3011775;-72
2023/09/11 05:23:13;;;;;;;22.70;9.80;;;;;;;14.75;74.22;99780.04;81759;1299;3011200;-71
2023/09/11 05:25:40;;;;;;;21.10;9.60;;;;;;;14.76;74.34;99779.25;81901;1297;3011404;-70
2023/09/11 05:28:08;;;;;;;13.10;7.00;;;;;;;14.76;74.55;99782.61;80631;1298;3049975;-70
2023/09/11 05:30:34;;;;;;;13.30;8.20;;;;;;;15.33;73.32;99780.67;81919;1298;3018467;-75
2023/09/11 05:33:01;;;;;;;12.30;7.80;;;;;;;15.99;70.84;99776.40;81856;1297;3011235;-71
2023/09/11 05:35:31;;;;;;;13.70;8.60;;;;;;;16.20;69.90;99777.59;80573;1298;3026499;-76
2023/09/11 05:37:58;;;;;;;19.30;9.30;;;;;;;16.21;69.60;99779.41;81818;1298;3011252;-74
2023/09/11 05:40:24;;;;;;;19.20;10.40;;;;;;;16.07;69.73;99777.20;81756;1299;3011328;-73
2023/09/11 05:42:52;;;;;;;16.80;10.10;;;;;;;16.04;69.92;99780.60;80588;1301;3049090;-74
2023/09/11 05:45:19;;;;;;;19.70;9.80;;;;;;;16.06;69.67;99780.98;81884;1302;3012880;-71
2023/09/11 05:47:46;;;;;;;21.30;10.20;;;;;;;16.12;69.38;99785.61;81869;1298;3011042;-73
2023/09/11 05:50:14;;;;;;;16.20;10.00;;;;;;;16.17;69.08;99786.46;80482;1299;3026364;-75
2023/09/11 05:52:41;;;;;;;14.50;8.50;;;;;;;16.22;68.70;99784.64;81857;1299;3012503;-77
2023/09/11 05:55:09;;;;;;;16.20;9.40;;;;;;;16.21;69.03;99786.52;81866;1299;3011300;-76
2023/09/11 05:57:37;;;;;;;15.30;9.60;;;;;;;16.24;68.60;99787.16;80551;1298;3049204;-74
2023/09/11 06:00:12;;;;;;;18.90;9.20;;;;;;;16.26;68.73;99785.59;81806;1303;3012766;-73
2023/09/11 06:02:40;;;;;;;21.90;8.90;;;;;;;16.32;68.39;99787.55;80508;1299;3069086;-76
2023/09/11 06:05:08;;;;;;;18.40;9.00;;;;;;;16.36;68.46;99789.40;81798;1299;3012466;-76
2023/09/11 06:07:34;;;;;;;16.30;8.40;;;;;;;16.43;68.24;99792.04;81848;1299;3011491;-76
2023/09/11 06:10:04;;;;;;;18.80;9.40;;;;;;;16.48;68.01;99792.86;80540;1303;3053377;-75
2023/09/11 06:12:30;;;;;;;11.70;8.10;;;;;;;16.55;68.12;99790.32;81830;1299;3011220;-75
2023/09/11 06:15:00;;;;;;;17.20;8.80;;;;;;;16.60;67.76;99781.30;81311;1303;3011374;-74
2023/09/11 06:17:27;;;;;;;17.40;9.30;;;;;;;16.61;67.32;99782.95;81811;1303;3018056;-74
2023/09/11 06:19:53;;;;;;;17.20;9.50;;;;;;;16.65;67.56;99784.23;81826;1298;3011475;-77
2023/09/11 06:22:21;;;;;;;17.60;9.30;;;;;;;16.72;67.32;99787.23;80602;1298;3026026;-75
2023/09/11 06:24:48;;;;;;;13.60;9.40;;;;;;;16.80;66.86;99790.80;81865;1298;3012514;-75
2023/09/11 06:27:15;;;;;;;15.80;9.20;;;;;;;16.84;67.16;99791.05;81774;1298;3011166;-77
2023/09/11 06:29:43;;;;;;;18.70;9.60;;;;;;;16.96;66.78;99794.37;80569;1303;3025933;-78
2023/09/11 06:32:15;;;;;;;16.60;9.80;;;;;;;17.04;66.45;99795.45;81852;1298;3011808;-73
2023/09/11 06:34:45;;;;;;;16.50;8.80;;;;;;;17.08;66.37;99794.34;80588;1298;3050445;-71
2023/09/11 06:37:12;;;;;;;27.60;9.40;;;;;;;17.13;66.11;99802.34;81841;1299;3013915;-70
2023/09/11 06:39:39;;;;;;;16.30;9.40;;;;;;;17.19;66.30;99801.66;81818;1299;3011119;-73
2023/09/11 06:42:06;;;;;;;12.40;8.40;;;;;;;17.27;65.96;99799.41;80566;1298;3026088;-69
2023/09/11 06:44:33;;;;;;;14.50;9.20;;;;;;;17.38;65.85;99800.26;81867;1299;3012643;-68
2023/09/11 06:47:00;;;;;;;17.00;8.80;;;;;;;17.47;65.11;99803.44;81799;1299;3011274;-68
2023/09/11 06:49:28;;;;;;;18.40;9.00;;;;;;;17.51;65.25;99804.85;80542;1298;3026310;-68
2023/09/11 06:51:55;;;;;;;20.30;9.70;;;;;;;17.47;65.31;99803.38;81873;1298;3012815;-69
2023/09/11 06:54:23;;;;;;;17.60;10.20;;;;;;;17.53;64.91;99803.23;81781;1299;3011370;-69
2023/09/11 06:56:51;;;;;;;19.90;9.80;;;;;;;17.56;64.59;99804.78;80573;1299;3048949;-71
2023/09/11 06:59:18;;;;;;;21.10;9.70;;;;;;;17.60;64.46;99803.22;81828;1303;3012760;-68
2023/09/11 07:01:44;;;;;;;17.90;10.00;;;;;;;17.69;64.42;99800.64;81815;1298;3011448;-71
2023/09/11 07:04:12;;;;;;;16.70;10.00;;;;;;;17.75;63.69;99799.59;80507;1298;3050948;-71
2023/09/11 07:06:40;;;;;;;22.70;9.00;;;;;;;17.82;63.40;99804.69;81805;1299;3013262;-69
2023/09/11 07:09:07;;;;;;;20.40;9.30;;;;;;;17.91;62.90;99802.15;81819;1299;3011528;-69
2023/09/11 07:11:35;;;;;;;19.20;9.10;;;;;;;17.94;62.75;99799.60;80533;1298;3048460;-68
2023/09/11 07:17:03;;;;;;;16.50;9.70;;;;;;;18.26;61.41;99793.08;80336;1298;3011831;-68
2023/09/11 07:19:29;;;;;;;18.80;8.50;;;;;;;18.31;61.13;99793.56;79204;1299;3011934;-67
2023/09/11 07:21:58;;;;;;;13.10;8.50;;;;;;;18.29;60.77;99796.61;78664;1301;3013275;-68
2023/09/11 07:24:24;;;;;;;15.70;8.50;;;;;;;18.34;60.79;99792.83;79297;1303;3013068;-68
2023/09/11 07:26:51;;;;;;;19.10;8.40;;;;;;;18.46;60.53;99792.63;79394;1299;3012825;-67
2023/09/11 07:29:24;;;;;;;18.70;7.70;;;;;;;18.56;59.58;99791.57;75661;1303;3156377;-67
2023/09/11 07:31:50;;;;;;;14.00;7.40;;;;;;;18.70;59.30;99790.67;79636;1297;3011561;-67
2023/09/11 07:34:18;;;;;;;15.00;7.80;;;;;;;18.82;59.04;99791.38;78227;1297;3026551;-67
2023/09/11 07:36:45;;;;;;;16.50;7.50;;;;;;;18.93;58.61;99795.04;79549;1300;3011820;-69
2023/09/11 07:39:11;;;;;;;15.70;8.00;;;;;;;19.02;58.33;99794.20;79363;1297;3011935;-68
2023/09/11 07:41:40;;;;;;;11.20;7.20;;;;;;;19.12;58.57;99796.70;78328;1297;3026147;-68
2023/09/11 07:44:07;;;;;;;13.90;8.00;;;;;;;19.19;57.69;99795.72;79618;1300;3013231;-68
2023/09/11 07:46:33;;;;;;;15.20;7.20;;;;;;;19.20;56.35;99800.42;79531;1297;3011470;-69
2023/09/11 07:49:01;;;;;;;16.40;8.10;;;;;;;19.12;56.30;99792.44;78562;1300;3048575;-67
2023/09/11 07:51:28;;;;;;;13.70;7.90;;;;;;;19.16;56.44;99792.27;79656;1297;3013715;-71
2023/09/11 07:53:55;;;;;;;17.70;7.80;;;;;;;19.29;56.40;99788.23;79327;1300;3011717;-69
2023/09/11 07:56:23;;;;;;;20.10;7.50;;;;;;;19.43;56.10;99787.82;78593;1300;3052021;-71
2023/09/11 07:58:50;;;;;;;17.40;6.40;;;;;;;19.41;55.01;99790.08;79484;1298;3012907;-69
2023/09/11 08:01:18;;;;;;;14.20;6.70;;;;;;;19.43;54.89;99783.89;79429;1296;3011869;-68
2023/09/11 08:03:47;;;;;;;16.30;5.60;;;;;;;19.56;55.04;99783.44;78247;1297;3048825;-67
2023/09/11 08:06:14;;;;;;;11.50;5.10;;;;;;;19.69;53.95;99782.90;79538;1297;3011944;-67
2023/09/11 08:08:40;;;;;;;8.60;4.60;;;;;;;19.72;53.67;99778.19;79551;1298;3012399;-68
2023/09/11 08:11:26;;;;;;;8.70;4.80;;;;;;;19.68;53.45;99781.89;78231;1300;3052417;-70
2023/09/11 08:13:55;;;;;;;11.30;5.10;;;;;;;19.84;53.43;99783.48;78258;1297;3070744;-69
2023/09/11 08:16:21;;;;;;;12.30;5.80;;;;;;;19.92;53.49;99781.63;79596;1300;3018659;-69
2023/09/11 08:18:47;;;;;;;9.40;4.60;;;;;;;20.00;53.31;99779.52;79586;1297;3011934;-67
2023/09/11 08:21:16;;;;;;;19.10;5.20;;;;;;;20.00;52.54;99783.27;78243;1301;3026087;-68
2023/09/11 08:23:43;;;;;;;10.60;4.80;;;;;;;20.00;52.62;99782.34;79321;1300;3014722;-68
2023/09/11 08:26:10;;;;;;;11.60;5.80;;;;;;;20.09;52.26;99777.92;79512;1300;3013141;-69
2023/09/11 08:28:38;;;;;;;10.60;5.20;;;;;;;20.10;52.33;99777.89;78193;1302;3068309;-69
2023/09/11 08:31:05;;;;;;;7.70;3.40;;;;;;;20.24;51.83;99775.98;79557;1301;3013019;-66
2023/09/11 08:33:32;;;;;;;9.30;3.80;;;;;;;20.40;51.01;99774.23;79456;1302;3011658;-68
2023/09/11 08:36:00;;;;;;;7.20;3.70;;;;;;;20.45;50.04;99773.05;78332;1297;3026808;-68
2023/09/11 08:38:26;;;;;;;7.40;4.30;;;;;;;20.49;50.16;99770.98;79650;1298;3018532;-68
2023/09/11 08:40:53;;;;;;;7.10;4.50;;;;;;;20.48;50.09;99772.61;79481;1302;3013924;-71
2023/09/11 08:43:24;;;;;;;7.90;4.80;;;;;;;20.55;49.98;99766.75;78266;1302;3026558;-73
2023/09/11 08:45:51;;;;;;;9.30;4.20;;;;;;;20.65;49.40;99761.86;79457;1297;3011604;-72
2023/09/11 08:48:19;;;;;;;6.90;4.90;;;;;;;20.68;50.07;99761.59;78203;1297;3025427;-70
2023/09/11 08:50:50;;;;;;;7.90;5.40;;;;;;;20.66;50.08;99755.21;79424;1298;3018550;-67
2023/09/11 08:53:19;;;;;;;11.40;5.00;;;;;;;20.55;49.68;99753.27;78369;1303;3049352;-67
2023/09/11 08:55:49;;;;;;;11.30;6.60;;;;;;;20.57;50.39;99752.72;79497;1301;3013109;-68
2023/09/11 08:58:20;;;;;;;12.80;6.10;;;;;;;20.44;50.58;99747.55;78301;1298;3070706;-67
2023/09/11 09:00:47;;;;;;;12.60;6.10;;;;;;;20.40;50.66;99749.54;79571;1298;3011513;-66
2023/09/11 09:03:15;;;;;;;10.70;5.80;;;;;;;20.32;50.65;99745.12;79128;1297;3011472;-69
2023/09/11 09:05:42;;;;;;;14.80;6.40;;;;;;;20.53;50.02;99745.38;79642;1297;3012968;-69
2023/09/11 09:08:12;;;;;;;15.50;5.60;;;;;;;20.70;49.58;99739.99;79345;1301;3013609;-66
2023/09/11 09:10:40;;;;;;;10.20;5.70;;;;;;;20.86;49.17;99740.95;78144;1301;3054464;-67
2023/09/11 09:13:07;;;;;;;7.40;4.70;;;;;;;21.10;48.94;99739.66;79505;1304;3012425;-68
2023/09/11 09:15:34;;;;;;;12.50;5.60;;;;;;;21.24;48.12;99735.36;79498;1297;3011995;-74
2023/09/11 09:18:02;;;;;;;10.50;5.50;;;;;;;21.19;46.95;99735.58;78429;1303;3026502;-69
2023/09/11 09:20:30;;;;;;;9.00;4.80;;;;;;;20.99;46.86;99739.13;79678;1297;3013459;-66
2023/09/11 09:22:57;;;;;;;9.90;5.10;;;;;;;21.03;47.04;99738.02;79393;1300;3012924;-68
2023/09/11 09:25:26;;;;;;;6.90;4.70;;;;;;;21.13;46.66;99738.14;78310;1297;3053672;-72
2023/09/11 09:27:52;;;;;;;5.70;4.50;;;;;;;21.11;45.67;99739.90;79456;1300;3013339;-71
2023/09/11 09:30:24;;;;;;;9.20;4.80;;;;;;;21.19;46.09;99735.36;79495;1300;3012886;-68
2023/09/11 09:32:52;;;;;;;10.60;4.60;;;;;;;21.36;45.66;99734.38;78177;1300;3056077;-69
2023/09/11 09:35:19;;;;;;;11.00;4.70;;;;;;;21.42;45.62;99732.84;79415;1298;3018364;-67
2023/09/11 09:37:50;;;;;;;7.60;4.90;;;;;;;21.55;45.62;99730.14;79413;1298;3011751;-66
2023/09/11 09:40:49;;;;;;;9.20;5.20;;;;;;;21.72;44.94;99725.73;78406;1297;3052497;-65
2023/09/11 09:43:18;;;;;;;7.40;4.80;;;;;;;21.59;45.60;99722.96;78183;1301;3052598;-67
2023/09/11 09:45:45;;;;;;;12.60;4.60;;;;;;;21.64;45.27;99719.77;79562;1300;3013464;-68
2023/09/11 09:48:15;;;;;;;10.60;4.00;;;;;;;21.79;43.88;99711.96;79407;1298;3011631;-66
2023/09/11 09:50:53;;;;;;;10.20;4.20;;;;;;;21.78;42.40;99712.80;78235;1300;3049238;-71
2023/09/11 09:53:35;;;;;;;5.50;3.30;;;;;;;21.50;42.62;99718.20;78303;1297;3052674;-71
2023/09/11 09:56:05;;;;;;;10.10;4.70;;;;;;;21.55;43.49;99718.05;78202;1300;3050820;-64
2023/09/11 09:58:39;;;;;;;7.60;4.50;;;;;;;21.59;44.10;99713.47;79378;1300;3013182;-75
2023/09/11 10:01:13;;;;;;;6.00;4.00;;;;;;;21.77;43.80;99706.14;78111;1297;3068606;-71
2023/09/11 10:03:46;;;;;;;7.80;4.00;;;;;;;22.00;43.12;99704.16;78842;1298;3013133;-68
2023/09/11 10:06:26;;;;;;;7.50;4.50;;;;;;;22.00;43.30;99702.66;79760;1300;3011939;-70
2023/09/11 10:09:13;;;;;;;7.00;4.50;;;;;;;22.01;43.79;99703.30;78004;1301;3056755;-66
2023/09/11 10:11:41;;;;;;;7.80;4.40;;;;;;;22.24;43.77;99699.95;78085;1298;3049174;-69
2023/09/11 10:14:08;;;;;;;8.50;4.30;;;;;;;22.40;43.47;99694.73;79471;1301;3018517;-69
2023/09/11 10:16:35;;;;;;;13.20;4.50;;;;;;;22.62;43.28;99699.92;79447;1301;3011638;-69
2023/09/11 10:19:03;;;;;;;6.80;4.20;;;;;;;22.75;42.87;99691.57;78369;1302;3025872;-70
2023/09/11 10:21:30;;;;;;;6.20;4.90;;;;;;;22.79;42.21;99690.76;79922;1297;3020488;-69
2023/09/11 10:23:57;;;;;;;8.00;4.50;;;;;;;22.70;42.42;99691.70;79556;1301;3011519;-67
2023/09/11 10:26:48;;;;;;;7.20;4.50;;;;;;;22.77;42.49;99682.94;78277;1297;3026596;-71
2023/09/11 10:29:20;;;;;;;7.70;4.60;;;;;;;22.44;42.66;99685.77;78365;1297;3052881;-71
2023/09/11 10:31:53;;;;;;;9.00;4.60;;;;;;;22.52;42.85;99678.36;79368;1298;3011723;-67
2023/09/11 10:34:21;;;;;;;7.60;3.90;;;;;;;22.69;42.63;99675.90;78216;1301;3052444;-66
2023/09/11 10:36:52;;;;;;;8.10;4.40;;;;;;;22.72;42.33;99673.30;79604;1303;3012895;-67
2023/09/11 10:39:20;;;;;;;9.30;4.20;;;;;;;22.89;42.36;99671.35;78464;1297;3050964;-66
2023/09/11 10:41:46;;;;;;;8.00;4.80;;;;;;;23.15;42.32;99670.91;79689;1297;3012935;-69
2023/09/11 10:44:15;;;;;;;9.60;4.60;;;;;;;23.33;41.60;99673.43;79515;1297;3011816;-68
2023/09/11 10:46:50;;;;;;;5.60;4.30;;;;;;;23.30;41.16;99668.38;78143;1301;3050151;-69
2023/09/11 10:49:20;;;;;;;7.60;3.90;;;;;;;23.25;40.70;99667.17;79078;1298;3013467;-70
2023/09/11 10:51:48;;;;;;;6.40;4.10;;;;;;;23.51;40.74;99665.74;79867;1297;3013521;-67
2023/09/11 10:54:21;;;;;;;9.50;3.80;;;;;;;23.69;40.39;99662.86;78869;1298;3013611;-68
2023/09/11 10:56:51;;;;;;;7.10;3.90;;;;;;;23.75;39.67;99654.63;81825;1297;3011355;-69
2023/09/11 10:59:22;;;;;;;8.20;4.00;;;;;;;23.59;39.58;99657.95;79260;1299;3049197;-68
2023/09/11 11:01:48;;;;;;;6.40;4.00;;;;;;;23.48;38.98;99656.98;79561;1298;3011671;-69
2023/09/11 11:04:17;;;;;;;6.40;3.80;;;;;;;23.39;38.96;99658.48;78770;1297;3013732;-74
2023/09/11 11:06:45;;;;;;;7.90;3.80;;;;;;;23.58;38.59;99648.83;79254;1304;3012997;-66
2023/09/11 11:09:29;;;;;;;5.50;3.90;;;;;;;23.75;37.76;99647.80;79376;1300;3011771;-70
2023/09/11 11:12:06;;;;;;;15.30;5.20;;;;;;;23.80;38.26;99649.30;78238;1301;3052580;-71
2023/09/11 11:14:35;;;;;;;6.60;4.60;;;;;;;23.87;38.56;99646.70;78154;1299;3069574;-69
2023/09/11 11:17:08;;;;;;;5.90;4.20;;;;;;;24.03;38.16;99647.29;79484;1298;3011370;-70
2023/09/11 11:19:37;;;;;;;6.30;4.30;;;;;;;24.14;37.43;99642.05;78193;1301;3048803;-72
2023/09/11 11:22:07;;;;;;;7.20;3.90;;;;;;;24.16;37.68;99640.89;79460;1301;3013576;-73